sensor_id;sensor_type;location;lat;lon;timestamp;P1;durP1;ratioP1;P2;durP2;ratioP2
9997;SDS011;5038;53.064;8.624;2023-03-24T00:00:58;9.30;;;5.00;;
9997;SDS011;5038;53.064;8.624;2023-03-24T00:03:27;8.17;;;5.33;;
9997;SDS011;5038;53.064;8.624;2023-03-24T00:05:56;11.37;;;5.70;;
9997;SDS011;5038;53.064;8.624;2023-03-24T00:08:27;8.63;;;5.97;;
9997;SDS011;5038;53.064;8.624;2023-03-24T00:10:57;8.80;;;5.90;;
9997;SDS011;5038;53.064;8.624;2023-03-24T00:13:31;8.87;;;5.63;;
9997;SDS011;5038;53.064;8.624;2023-03-24T00:16:04;7.83;;;5.53;;
9997;SDS011;5038;53.064;8.624;2023-03-24T00:18:33;8.33;;;5.37;;
9997;SDS011;5038;53.064;8.624;2023-03-24T00:21:02;9.00;;;5.93;;
9997;SDS011;5038;53.064;8.624;2023-03-24T00:23:31;10.53;;;5.63;;
9997;SDS011;5038;53.064;8.624;2023-03-24T00:26:01;7.20;;;4.80;;
9997;SDS011;5038;53.064;8.624;2023-03-24T00:28:31;11.57;;;5.60;;
9997;SDS011;5038;53.064;8.624;2023-03-24T00:31:02;10.83;;;5.70;;
9997;SDS011;5038;53.064;8.624;2023-03-24T00:33:34;9.90;;;6.13;;
9997;SDS011;5038;53.064;8.624;2023-03-24T00:36:04;8.97;;;5.87;;
9997;SDS011;5038;53.064;8.624;2023-03-24T00:38:34;9.90;;;5.40;;
9997;SDS011;5038;53.064;8.624;2023-03-24T00:41:03;10.37;;;5.77;;
9997;SDS011;5038;53.064;8.624;2023-03-24T00:43:34;8.90;;;4.90;;
9997;SDS011;5038;53.064;8.624;2023-03-24T00:46:03;10.50;;;5.80;;
9997;SDS011;5038;53.064;8.624;2023-03-24T00:48:33;9.60;;;5.40;;
9997;SDS011;5038;53.064;8.624;2023-03-24T00:51:04;9.63;;;6.10;;
9997;SDS011;5038;53.064;8.624;2023-03-24T00:53:36;10.20;;;5.80;;
9997;SDS011;5038;53.064;8.624;2023-03-24T00:56:09;9.10;;;5.43;;
9997;SDS011;5038;53.064;8.624;2023-03-24T00:58:42;9.00;;;5.87;;
9997;SDS011;5038;53.064;8.624;2023-03-24T01:01:10;11.17;;;5.70;;
9997;SDS011;5038;53.064;8.624;2023-03-24T01:03:39;8.70;;;5.40;;
9997;SDS011;5038;53.064;8.624;2023-03-24T01:06:14;12.30;;;6.27;;
9997;SDS011;5038;53.064;8.624;2023-03-24T01:08:45;9.47;;;5.67;;
9997;SDS011;5038;53.064;8.624;2023-03-24T01:11:15;8.00;;;5.83;;
9997;SDS011;5038;53.064;8.624;2023-03-24T01:13:47;8.17;;;5.30;;
9997;SDS011;5038;53.064;8.624;2023-03-24T01:16:17;8.73;;;5.57;;
9997;SDS011;5038;53.064;8.624;2023-03-24T01:18:49;7.70;;;5.17;;
9997;SDS011;5038;53.064;8.624;2023-03-24T01:21:19;10.20;;;6.03;;
9997;SDS011;5038;53.064;8.624;2023-03-24T01:23:47;9.13;;;6.00;;
9997;SDS011;5038;53.064;8.624;2023-03-24T01:26:15;8.70;;;5.67;;
9997;SDS011;5038;53.064;8.624;2023-03-24T01:28:43;6.50;;;5.37;;
9997;SDS011;5038;53.064;8.624;2023-03-24T01:31:13;8.00;;;6.10;;
9997;SDS011;5038;53.064;8.624;2023-03-24T01:33:41;9.23;;;6.57;;
9997;SDS011;5038;53.064;8.624;2023-03-24T01:36:09;7.53;;;6.07;;
9997;SDS011;5038;53.064;8.624;2023-03-24T01:38:37;8.37;;;6.43;;
9997;SDS011;5038;53.064;8.624;2023-03-24T01:41:06;8.20;;;6.57;;
9997;SDS011;5038;53.064;8.624;2023-03-24T01:43:34;7.90;;;6.37;;
9997;SDS011;5038;53.064;8.624;2023-03-24T01:46:11;12.30;;;6.87;;
9997;SDS011;5038;53.064;8.624;2023-03-24T01:48:44;7.60;;;6.60;;
9997;SDS011;5038;53.064;8.624;2023-03-24T01:51:17;11.53;;;6.90;;
9997;SDS011;5038;53.064;8.624;2023-03-24T01:53:50;10.70;;;7.20;;
9997;SDS011;5038;53.064;8.624;2023-03-24T01:56:24;9.57;;;7.20;;
9997;SDS011;5038;53.064;8.624;2023-03-24T01:58:55;9.83;;;7.30;;
9997;SDS011;5038;53.064;8.624;2023-03-24T02:01:49;9.17;;;7.70;;
9997;SDS011;5038;53.064;8.624;2023-03-24T02:04:35;11.77;;;8.53;;
9997;SDS011;5038;53.064;8.624;2023-03-24T02:07:09;11.50;;;7.57;;
9997;SDS011;5038;53.064;8.624;2023-03-24T02:09:42;8.20;;;7.20;;
9997;SDS011;5038;53.064;8.624;2023-03-24T02:12:10;8.23;;;7.13;;
9997;SDS011;5038;53.064;8.624;2023-03-24T02:14:39;11.80;;;8.40;;
9997;SDS011;5038;53.064;8.624;2023-03-24T02:17:17;9.10;;;8.20;;
9997;SDS011;5038;53.064;8.624;2023-03-24T02:20:13;10.87;;;8.20;;
9997;SDS011;5038;53.064;8.624;2023-03-24T02:23:07;9.27;;;8.37;;
9997;SDS011;5038;53.064;8.624;2023-03-24T02:29:06;10.03;;;8.93;;
9997;SDS011;5038;53.064;8.624;2023-03-24T02:31:56;11.87;;;9.00;;
9997;SDS011;5038;53.064;8.624;2023-03-24T02:34:58;11.43;;;10.00;;
9997;SDS011;5038;53.064;8.624;2023-03-24T02:40:58;11.50;;;9.40;;
9997;SDS011;5038;53.064;8.624;2023-03-24T02:43:32;10.13;;;9.13;;
9997;SDS011;5038;53.064;8.624;2023-03-24T02:46:09;11.07;;;9.90;;
9997;SDS011;5038;53.064;8.624;2023-03-24T02:48:44;13.10;;;9.27;;
9997;SDS011;5038;53.064;8.624;2023-03-24T02:51:25;11.80;;;10.17;;
9997;SDS011;5038;53.064;8.624;2023-03-24T02:53:58;11.07;;;10.07;;
9997;SDS011;5038;53.064;8.624;2023-03-24T02:56:36;12.13;;;10.90;;
9997;SDS011;5038;53.064;8.624;2023-03-24T02:59:20;11.63;;;10.47;;
9997;SDS011;5038;53.064;8.624;2023-03-24T03:02:01;11.97;;;10.07;;
9997;SDS011;5038;53.064;8.624;2023-03-24T03:04:38;11.90;;;10.80;;
9997;SDS011;5038;53.064;8.624;2023-03-24T03:07:17;11.70;;;10.70;;
9997;SDS011;5038;53.064;8.624;2023-03-24T03:09:53;12.03;;;11.03;;
9997;SDS011;5038;53.064;8.624;2023-03-24T03:12:29;11.63;;;10.73;;
9997;SDS011;5038;53.064;8.624;2023-03-24T03:15:02;12.40;;;11.40;;
9997;SDS011;5038;53.064;8.624;2023-03-24T03:17:34;11.70;;;10.70;;
9997;SDS011;5038;53.064;8.624;2023-03-24T03:20:06;12.23;;;11.23;;
9997;SDS011;5038;53.064;8.624;2023-03-24T03:22:38;13.03;;;11.87;;
9997;SDS011;5038;53.064;8.624;2023-03-24T03:25:10;13.33;;;12.23;;
9997;SDS011;5038;53.064;8.624;2023-03-24T03:27:43;12.67;;;11.40;;
9997;SDS011;5038;53.064;8.624;2023-03-24T03:30:12;12.90;;;11.70;;
9997;SDS011;5038;53.064;8.624;2023-03-24T03:32:45;13.00;;;11.80;;
9997;SDS011;5038;53.064;8.624;2023-03-24T03:35:21;14.60;;;13.20;;
9997;SDS011;5038;53.064;8.624;2023-03-24T03:37:55;12.27;;;11.17;;
9997;SDS011;5038;53.064;8.624;2023-03-24T03:40:30;13.03;;;11.83;;
9997;SDS011;5038;53.064;8.624;2023-03-24T03:43:10;13.70;;;12.40;;
9997;SDS011;5038;53.064;8.624;2023-03-24T03:45:39;13.10;;;12.00;;
9997;SDS011;5038;53.064;8.624;2023-03-24T03:48:07;12.77;;;11.67;;
9997;SDS011;5038;53.064;8.624;2023-03-24T03:50:37;14.00;;;12.90;;
9997;SDS011;5038;53.064;8.624;2023-03-24T03:53:06;13.57;;;12.37;;
9997;SDS011;5038;53.064;8.624;2023-03-24T03:55:35;13.43;;;12.23;;
9997;SDS011;5038;53.064;8.624;2023-03-24T03:58:04;14.77;;;13.47;;
9997;SDS011;5038;53.064;8.624;2023-03-24T04:00:38;13.30;;;12.20;;
9997;SDS011;5038;53.064;8.624;2023-03-24T04:03:40;14.40;;;13.20;;
9997;SDS011;5038;53.064;8.624;2023-03-24T04:06:54;14.13;;;13.03;;
9997;SDS011;5038;53.064;8.624;2023-03-24T04:09:36;15.00;;;13.70;;
9997;SDS011;5038;53.064;8.624;2023-03-24T04:12:23;14.73;;;13.53;;
9997;SDS011;5038;53.064;8.624;2023-03-24T04:15:34;14.50;;;13.30;;
9997;SDS011;5038;53.064;8.624;2023-03-24T04:18:22;15.13;;;13.77;;
9997;SDS011;5038;53.064;8.624;2023-03-24T04:21:06;14.33;;;13.20;;
9997;SDS011;5038;53.064;8.624;2023-03-24T04:23:50;15.23;;;13.73;;
9997;SDS011;5038;53.064;8.624;2023-03-24T04:26:26;14.10;;;13.00;;
9997;SDS011;5038;53.064;8.624;2023-03-24T04:29:02;14.60;;;13.40;;
9997;SDS011;5038;53.064;8.624;2023-03-24T04:31:36;14.30;;;13.10;;
9997;SDS011;5038;53.064;8.624;2023-03-24T04:34:12;13.40;;;12.30;;
9997;SDS011;5038;53.064;8.624;2023-03-24T04:36:47;13.63;;;12.50;;
9997;SDS011;5038;53.064;8.624;2023-03-24T04:39:33;13.43;;;12.27;;
9997;SDS011;5038;53.064;8.624;2023-03-24T04:42:10;14.67;;;13.30;;
9997;SDS011;5038;53.064;8.624;2023-03-24T04:44:43;12.20;;;11.20;;
9997;SDS011;5038;53.064;8.624;2023-03-24T04:47:16;13.70;;;12.50;;
9997;SDS011;5038;53.064;8.624;2023-03-24T04:50:11;13.70;;;12.40;;
9997;SDS011;5038;53.064;8.624;2023-03-24T04:52:40;14.10;;;12.90;;
9997;SDS011;5038;53.064;8.624;2023-03-24T04:55:17;12.97;;;11.83;;
9997;SDS011;5038;53.064;8.624;2023-03-24T04:57:57;13.97;;;12.87;;
9997;SDS011;5038;53.064;8.624;2023-03-24T05:00:25;13.53;;;12.53;;
9997;SDS011;5038;53.064;8.624;2023-03-24T05:02:54;14.60;;;13.30;;
9997;SDS011;5038;53.064;8.624;2023-03-24T05:05:27;13.77;;;12.57;;
9997;SDS011;5038;53.064;8.624;2023-03-24T05:07:55;14.83;;;13.63;;
9997;SDS011;5038;53.064;8.624;2023-03-24T05:10:23;14.00;;;12.80;;
9997;SDS011;5038;53.064;8.624;2023-03-24T05:12:54;14.33;;;13.00;;
9997;SDS011;5038;53.064;8.624;2023-03-24T05:15:41;14.97;;;13.77;;
9997;SDS011;5038;53.064;8.624;2023-03-24T05:18:26;13.43;;;12.33;;
9997;SDS011;5038;53.064;8.624;2023-03-24T05:20:57;14.10;;;13.00;;
9997;SDS011;5038;53.064;8.624;2023-03-24T05:23:26;13.57;;;12.47;;
9997;SDS011;5038;53.064;8.624;2023-03-24T05:25:55;14.97;;;13.87;;
9997;SDS011;5038;53.064;8.624;2023-03-24T05:28:26;15.10;;;13.90;;
9997;SDS011;5038;53.064;8.624;2023-03-24T05:30:54;15.40;;;14.00;;
9997;SDS011;5038;53.064;8.624;2023-03-24T05:33:49;13.90;;;12.70;;
9997;SDS011;5038;53.064;8.624;2023-03-24T05:36:20;13.90;;;12.80;;
9997;SDS011;5038;53.064;8.624;2023-03-24T05:38:53;14.40;;;13.30;;
9997;SDS011;5038;53.064;8.624;2023-03-24T05:41:26;14.77;;;13.47;;
9997;SDS011;5038;53.064;8.624;2023-03-24T05:43:54;13.90;;;12.80;;
9997;SDS011;5038;53.064;8.624;2023-03-24T05:46:22;14.10;;;12.97;;
9997;SDS011;5038;53.064;8.624;2023-03-24T05:48:52;13.40;;;12.30;;
9997;SDS011;5038;53.064;8.624;2023-03-24T05:51:27;13.90;;;12.80;;
9997;SDS011;5038;53.064;8.624;2023-03-24T05:54:02;11.63;;;10.63;;
9997;SDS011;5038;53.064;8.624;2023-03-24T05:56:37;10.53;;;9.70;;
9997;SDS011;5038;53.064;8.624;2023-03-24T05:59:31;11.27;;;10.30;;
9997;SDS011;5038;53.064;8.624;2023-03-24T06:02:02;7.40;;;6.63;;
9997;SDS011;5038;53.064;8.624;2023-03-24T06:04:42;5.40;;;4.77;;
9997;SDS011;5038;53.064;8.624;2023-03-24T06:07:16;4.80;;;3.50;;
9997;SDS011;5038;53.064;8.624;2023-03-24T06:09:45;4.70;;;3.30;;
9997;SDS011;5038;53.064;8.624;2023-03-24T06:12:16;5.07;;;2.97;;
9997;SDS011;5038;53.064;8.624;2023-03-24T06:14:59;5.93;;;2.77;;
9997;SDS011;5038;53.064;8.624;2023-03-24T06:17:30;5.40;;;2.53;;
9997;SDS011;5038;53.064;8.624;2023-03-24T06:20:06;6.20;;;2.60;;
9997;SDS011;5038;53.064;8.624;2023-03-24T06:22:48;5.97;;;2.70;;
9997;SDS011;5038;53.064;8.624;2023-03-24T06:25:22;5.67;;;2.70;;
9997;SDS011;5038;53.064;8.624;2023-03-24T06:28:13;4.87;;;2.10;;
9997;SDS011;5038;53.064;8.624;2023-03-24T06:30:43;4.70;;;2.47;;
9997;SDS011;5038;53.064;8.624;2023-03-24T06:33:18;4.60;;;2.20;;
9997;SDS011;5038;53.064;8.624;2023-03-24T06:35:48;7.50;;;2.20;;
9997;SDS011;5038;53.064;8.624;2023-03-24T06:38:19;6.83;;;2.60;;
9997;SDS011;5038;53.064;8.624;2023-03-24T06:40:47;4.87;;;2.60;;
9997;SDS011;5038;53.064;8.624;2023-03-24T06:43:16;5.93;;;2.50;;
9997;SDS011;5038;53.064;8.624;2023-03-24T06:45:44;5.00;;;2.17;;
9997;SDS011;5038;53.064;8.624;2023-03-24T06:48:17;6.40;;;2.33;;
9997;SDS011;5038;53.064;8.624;2023-03-24T06:50:46;5.90;;;2.67;;
9997;SDS011;5038;53.064;8.624;2023-03-24T06:53:15;6.10;;;2.17;;
9997;SDS011;5038;53.064;8.624;2023-03-24T06:55:46;6.87;;;3.07;;
9997;SDS011;5038;53.064;8.624;2023-03-24T06:58:20;5.40;;;2.60;;
9997;SDS011;5038;53.064;8.624;2023-03-24T07:01:02;5.20;;;2.50;;
9997;SDS011;5038;53.064;8.624;2023-03-24T07:03:32;9.27;;;3.40;;
9997;SDS011;5038;53.064;8.624;2023-03-24T07:06:24;6.07;;;3.10;;
9997;SDS011;5038;53.064;8.624;2023-03-24T07:08:55;6.17;;;2.60;;
9997;SDS011;5038;53.064;8.624;2023-03-24T07:11:27;6.30;;;2.80;;
9997;SDS011;5038;53.064;8.624;2023-03-24T07:13:57;6.30;;;2.57;;
9997;SDS011;5038;53.064;8.624;2023-03-24T07:16:27;7.53;;;3.10;;
9997;SDS011;5038;53.064;8.624;2023-03-24T07:19:19;6.80;;;2.37;;
9997;SDS011;5038;53.064;8.624;2023-03-24T07:21:56;7.77;;;2.77;;
9997;SDS011;5038;53.064;8.624;2023-03-24T07:24:39;6.87;;;3.20;;
9997;SDS011;5038;53.064;8.624;2023-03-24T07:27:28;7.73;;;2.90;;
9997;SDS011;5038;53.064;8.624;2023-03-24T07:29:58;7.20;;;2.90;;
9997;SDS011;5038;53.064;8.624;2023-03-24T07:32:37;8.03;;;3.30;;
9997;SDS011;5038;53.064;8.624;2023-03-24T07:35:09;6.17;;;3.10;;
9997;SDS011;5038;53.064;8.624;2023-03-24T07:37:38;6.97;;;3.17;;
9997;SDS011;5038;53.064;8.624;2023-03-24T07:40:07;9.63;;;3.10;;
9997;SDS011;5038;53.064;8.624;2023-03-24T07:42:39;8.47;;;3.00;;
9997;SDS011;5038;53.064;8.624;2023-03-24T07:45:27;7.50;;;2.80;;
9997;SDS011;5038;53.064;8.624;2023-03-24T07:47:57;7.23;;;3.40;;
9997;SDS011;5038;53.064;8.624;2023-03-24T07:50:30;7.43;;;3.00;;
9997;SDS011;5038;53.064;8.624;2023-03-24T07:53:03;7.17;;;2.43;;
9997;SDS011;5038;53.064;8.624;2023-03-24T07:55:35;7.73;;;2.97;;
9997;SDS011;5038;53.064;8.624;2023-03-24T07:58:14;10.20;;;2.70;;
9997;SDS011;5038;53.064;8.624;2023-03-24T08:00:58;6.93;;;2.60;;
9997;SDS011;5038;53.064;8.624;2023-03-24T08:03:37;10.93;;;3.07;;
9997;SDS011;5038;53.064;8.624;2023-03-24T08:06:13;9.37;;;2.87;;
9997;SDS011;5038;53.064;8.624;2023-03-24T08:08:45;6.97;;;2.87;;
9997;SDS011;5038;53.064;8.624;2023-03-24T08:11:13;9.87;;;3.27;;
9997;SDS011;5038;53.064;8.624;2023-03-24T08:13:45;7.90;;;2.97;;
9997;SDS011;5038;53.064;8.624;2023-03-24T08:16:14;6.60;;;2.60;;
9997;SDS011;5038;53.064;8.624;2023-03-24T08:18:42;7.30;;;3.10;;
9997;SDS011;5038;53.064;8.624;2023-03-24T08:21:11;5.83;;;2.80;;
9997;SDS011;5038;53.064;8.624;2023-03-24T08:23:39;6.00;;;2.60;;
9997;SDS011;5038;53.064;8.624;2023-03-24T08:26:08;10.57;;;2.57;;
9997;SDS011;5038;53.064;8.624;2023-03-24T08:28:37;9.47;;;3.13;;
9997;SDS011;5038;53.064;8.624;2023-03-24T08:31:07;8.20;;;2.90;;
9997;SDS011;5038;53.064;8.624;2023-03-24T08:33:36;6.27;;;2.33;;
9997;SDS011;5038;53.064;8.624;2023-03-24T08:36:05;7.10;;;3.00;;
9997;SDS011;5038;53.064;8.624;2023-03-24T08:38:34;6.93;;;3.00;;
9997;SDS011;5038;53.064;8.624;2023-03-24T08:41:04;9.00;;;3.20;;
9997;SDS011;5038;53.064;8.624;2023-03-24T08:43:34;10.33;;;3.90;;
9997;SDS011;5038;53.064;8.624;2023-03-24T08:46:05;5.37;;;2.10;;
9997;SDS011;5038;53.064;8.624;2023-03-24T08:48:39;7.37;;;2.80;;
9997;SDS011;5038;53.064;8.624;2023-03-24T08:51:09;7.20;;;2.53;;
9997;SDS011;5038;53.064;8.624;2023-03-24T08:53:38;6.17;;;2.40;;
9997;SDS011;5038;53.064;8.624;2023-03-24T08:56:07;7.97;;;2.83;;
9997;SDS011;5038;53.064;8.624;2023-03-24T08:58:35;10.57;;;2.67;;
9997;SDS011;5038;53.064;8.624;2023-03-24T09:01:03;10.83;;;2.90;;
9997;SDS011;5038;53.064;8.624;2023-03-24T09:03:34;7.00;;;2.70;;
9997;SDS011;5038;53.064;8.624;2023-03-24T09:06:05;9.80;;;2.50;;
9997;SDS011;5038;53.064;8.624;2023-03-24T09:08:33;6.40;;;2.90;;
9997;SDS011;5038;53.064;8.624;2023-03-24T09:11:01;8.97;;;2.27;;
9997;SDS011;5038;53.064;8.624;2023-03-24T09:13:29;7.63;;;2.60;;
9997;SDS011;5038;53.064;8.624;2023-03-24T09:15:59;9.93;;;2.50;;
9997;SDS011;5038;53.064;8.624;2023-03-24T09:18:30;7.50;;;3.07;;
9997;SDS011;5038;53.064;8.624;2023-03-24T09:21:00;6.33;;;2.10;;
9997;SDS011;5038;53.064;8.624;2023-03-24T09:23:29;12.60;;;2.83;;
9997;SDS011;5038;53.064;8.624;2023-03-24T09:25:57;7.67;;;2.50;;
9997;SDS011;5038;53.064;8.624;2023-03-24T09:28:26;11.03;;;3.43;;
9997;SDS011;5038;53.064;8.624;2023-03-24T09:30:55;9.03;;;3.47;;
9997;SDS011;5038;53.064;8.624;2023-03-24T09:33:25;9.40;;;2.73;;
9997;SDS011;5038;53.064;8.624;2023-03-24T09:35:55;7.73;;;2.80;;
9997;SDS011;5038;53.064;8.624;2023-03-24T09:38:27;11.50;;;3.37;;
9997;SDS011;5038;53.064;8.624;2023-03-24T09:40:56;17.00;;;4.07;;
9997;SDS011;5038;53.064;8.624;2023-03-24T09:43:30;10.20;;;3.27;;
9997;SDS011;5038;53.064;8.624;2023-03-24T09:46:03;10.43;;;3.87;;
9997;SDS011;5038;53.064;8.624;2023-03-24T09:48:37;11.43;;;3.80;;
9997;SDS011;5038;53.064;8.624;2023-03-24T09:51:09;8.97;;;2.40;;
9997;SDS011;5038;53.064;8.624;2023-03-24T09:53:48;9.30;;;3.43;;
9997;SDS011;5038;53.064;8.624;2023-03-24T09:56:21;8.93;;;3.07;;
9997;SDS011;5038;53.064;8.624;2023-03-24T09:58:52;10.33;;;3.90;;
9997;SDS011;5038;53.064;8.624;2023-03-24T10:01:27;10.03;;;3.97;;
9997;SDS011;5038;53.064;8.624;2023-03-24T10:03:56;8.60;;;3.07;;
9997;SDS011;5038;53.064;8.624;2023-03-24T10:06:27;9.60;;;4.30;;
9997;SDS011;5038;53.064;8.624;2023-03-24T10:09:04;10.00;;;4.10;;
9997;SDS011;5038;53.064;8.624;2023-03-24T10:11:43;10.80;;;3.00;;
9997;SDS011;5038;53.064;8.624;2023-03-24T10:14:20;11.87;;;3.70;;
9997;SDS011;5038;53.064;8.624;2023-03-24T10:17:01;11.80;;;3.17;;
9997;SDS011;5038;53.064;8.624;2023-03-24T10:19:36;11.77;;;3.83;;
9997;SDS011;5038;53.064;8.624;2023-03-24T10:22:10;6.60;;;2.97;;
9997;SDS011;5038;53.064;8.624;2023-03-24T10:24:46;8.93;;;3.50;;
9997;SDS011;5038;53.064;8.624;2023-03-24T10:27:21;9.70;;;3.70;;
9997;SDS011;5038;53.064;8.624;2023-03-24T10:29:56;11.13;;;4.37;;
9997;SDS011;5038;53.064;8.624;2023-03-24T10:32:31;9.53;;;3.83;;
9997;SDS011;5038;53.064;8.624;2023-03-24T10:35:01;10.10;;;3.60;;
9997;SDS011;5038;53.064;8.624;2023-03-24T10:37:35;9.20;;;3.47;;
9997;SDS011;5038;53.064;8.624;2023-03-24T10:40:11;7.30;;;3.23;;
9997;SDS011;5038;53.064;8.624;2023-03-24T10:42:44;12.10;;;4.70;;
9997;SDS011;5038;53.064;8.624;2023-03-24T10:45:33;8.80;;;4.30;;
9997;SDS011;5038;53.064;8.624;2023-03-24T10:48:03;9.60;;;3.30;;
9997;SDS011;5038;53.064;8.624;2023-03-24T10:50:32;8.93;;;3.20;;
9997;SDS011;5038;53.064;8.624;2023-03-24T10:53:06;10.80;;;4.00;;
9997;SDS011;5038;53.064;8.624;2023-03-24T10:55:37;11.00;;;3.97;;
9997;SDS011;5038;53.064;8.624;2023-03-24T10:58:10;6.50;;;3.70;;
9997;SDS011;5038;53.064;8.624;2023-03-24T11:00:45;8.60;;;4.00;;
9997;SDS011;5038;53.064;8.624;2023-03-24T11:03:15;7.90;;;4.20;;
9997;SDS011;5038;53.064;8.624;2023-03-24T11:05:48;12.70;;;4.13;;
9997;SDS011;5038;53.064;8.624;2023-03-24T11:08:26;11.30;;;3.80;;
9997;SDS011;5038;53.064;8.624;2023-03-24T11:11:00;9.37;;;4.80;;
9997;SDS011;5038;53.064;8.624;2023-03-24T11:13:29;12.67;;;3.80;;
9997;SDS011;5038;53.064;8.624;2023-03-24T11:16:08;12.70;;;3.80;;
9997;SDS011;5038;53.064;8.624;2023-03-24T11:18:53;11.77;;;4.00;;
9997;SDS011;5038;53.064;8.624;2023-03-24T11:21:23;7.63;;;3.53;;
9997;SDS011;5038;53.064;8.624;2023-03-24T11:23:51;7.97;;;2.70;;
9997;SDS011;5038;53.064;8.624;2023-03-24T11:26:22;7.50;;;2.90;;
9997;SDS011;5038;53.064;8.624;2023-03-24T11:28:59;9.77;;;3.17;;
9997;SDS011;5038;53.064;8.624;2023-03-24T11:31:29;8.57;;;3.50;;
9997;SDS011;5038;53.064;8.624;2023-03-24T11:33:59;9.43;;;2.80;;
9997;SDS011;5038;53.064;8.624;2023-03-24T11:39:23;10.40;;;3.40;;
9997;SDS011;5038;53.064;8.624;2023-03-24T11:41:59;8.00;;;3.53;;
9997;SDS011;5038;53.064;8.624;2023-03-24T11:44:31;8.27;;;3.20;;
9997;SDS011;5038;53.064;8.624;2023-03-24T11:47:12;11.93;;;3.40;;
9997;SDS011;5038;53.064;8.624;2023-03-24T11:49:48;11.20;;;3.20;;
9997;SDS011;5038;53.064;8.624;2023-03-24T11:52:21;8.40;;;3.63;;
9997;SDS011;5038;53.064;8.624;2023-03-24T11:54:53;9.23;;;3.33;;
9997;SDS011;5038;53.064;8.624;2023-03-24T11:57:26;8.17;;;3.80;;
9997;SDS011;5038;53.064;8.624;2023-03-24T12:00:13;11.20;;;3.33;;
9997;SDS011;5038;53.064;8.624;2023-03-24T12:02:53;9.50;;;3.40;;
9997;SDS011;5038;53.064;8.624;2023-03-24T12:05:44;7.90;;;2.97;;
9997;SDS011;5038;53.064;8.624;2023-03-24T12:08:26;5.70;;;2.40;;
9997;SDS011;5038;53.064;8.624;2023-03-24T12:11:10;6.70;;;2.40;;
9997;SDS011;5038;53.064;8.624;2023-03-24T12:13:47;8.00;;;2.60;;
9997;SDS011;5038;53.064;8.624;2023-03-24T12:16:23;6.10;;;2.60;;
9997;SDS011;5038;53.064;8.624;2023-03-24T12:19:04;6.07;;;2.40;;
9997;SDS011;5038;53.064;8.624;2023-03-24T12:21:47;7.57;;;2.17;;
9997;SDS011;5038;53.064;8.624;2023-03-24T12:24:26;6.80;;;2.40;;
9997;SDS011;5038;53.064;8.624;2023-03-24T12:27:11;9.50;;;3.50;;
9997;SDS011;5038;53.064;8.624;2023-03-24T12:29:54;10.43;;;2.20;;
9997;SDS011;5038;53.064;8.624;2023-03-24T12:32:33;9.67;;;2.93;;
9997;SDS011;5038;53.064;8.624;2023-03-24T12:38:10;7.73;;;2.57;;
9997;SDS011;5038;53.064;8.624;2023-03-24T12:44:01;8.23;;;2.10;;
9997;SDS011;5038;53.064;8.624;2023-03-24T12:46:43;6.83;;;2.40;;
9997;SDS011;5038;53.064;8.624;2023-03-24T12:52:17;6.23;;;3.13;;
9997;SDS011;5038;53.064;8.624;2023-03-24T12:55:07;6.17;;;2.10;;
9997;SDS011;5038;53.064;8.624;2023-03-24T12:57:40;7.23;;;2.50;;
9997;SDS011;5038;53.064;8.624;2023-03-24T13:00:16;7.13;;;2.47;;
9997;SDS011;5038;53.064;8.624;2023-03-24T13:02:53;8.23;;;3.23;;
9997;SDS011;5038;53.064;8.624;2023-03-24T13:05:26;7.90;;;2.70;;
9997;SDS011;5038;53.064;8.624;2023-03-24T13:07:58;7.00;;;2.80;;
9997;SDS011;5038;53.064;8.624;2023-03-24T13:10:32;6.20;;;2.83;;
9997;SDS011;5038;53.064;8.624;2023-03-24T13:13:07;8.67;;;2.97;;
9997;SDS011;5038;53.064;8.624;2023-03-24T13:15:40;6.13;;;2.73;;
9997;SDS011;5038;53.064;8.624;2023-03-24T13:18:19;5.53;;;2.47;;
9997;SDS011;5038;53.064;8.624;2023-03-24T13:20:54;7.53;;;2.90;;
9997;SDS011;5038;53.064;8.624;2023-03-24T13:23:30;9.03;;;2.77;;
9997;SDS011;5038;53.064;8.624;2023-03-24T13:26:10;10.67;;;2.53;;
9997;SDS011;5038;53.064;8.624;2023-03-24T13:28:51;6.43;;;2.00;;
9997;SDS011;5038;53.064;8.624;2023-03-24T13:31:24;8.63;;;2.90;;
9997;SDS011;5038;53.064;8.624;2023-03-24T13:33:55;8.30;;;2.63;;
9997;SDS011;5038;53.064;8.624;2023-03-24T13:36:28;5.50;;;3.07;;
9997;SDS011;5038;53.064;8.624;2023-03-24T13:39:05;7.93;;;2.83;;
9997;SDS011;5038;53.064;8.624;2023-03-24T13:41:39;9.17;;;2.93;;
9997;SDS011;5038;53.064;8.624;2023-03-24T13:44:14;7.40;;;2.53;;
9997;SDS011;5038;53.064;8.624;2023-03-24T13:49:34;7.80;;;2.37;;
9997;SDS011;5038;53.064;8.624;2023-03-24T13:52:03;9.63;;;3.00;;
9997;SDS011;5038;53.064;8.624;2023-03-24T13:54:34;7.70;;;2.50;;
9997;SDS011;5038;53.064;8.624;2023-03-24T13:57:04;7.63;;;3.00;;
9997;SDS011;5038;53.064;8.624;2023-03-24T13:59:38;5.97;;;2.30;;
9997;SDS011;5038;53.064;8.624;2023-03-24T14:02:09;6.77;;;2.60;;
9997;SDS011;5038;53.064;8.624;2023-03-24T14:04:50;7.97;;;2.40;;
9997;SDS011;5038;53.064;8.624;2023-03-24T14:10:27;5.37;;;2.43;;
9997;SDS011;5038;53.064;8.624;2023-03-24T14:13:32;6.67;;;2.43;;
9997;SDS011;5038;53.064;8.624;2023-03-24T14:19:16;5.10;;;2.20;;
9997;SDS011;5038;53.064;8.624;2023-03-24T14:21:54;6.17;;;2.20;;
9997;SDS011;5038;53.064;8.624;2023-03-24T14:24:27;6.37;;;2.23;;
9997;SDS011;5038;53.064;8.624;2023-03-24T14:26:58;6.17;;;1.97;;
9997;SDS011;5038;53.064;8.624;2023-03-24T14:29:34;9.10;;;2.70;;
9997;SDS011;5038;53.064;8.624;2023-03-24T14:32:04;6.43;;;2.47;;
9997;SDS011;5038;53.064;8.624;2023-03-24T14:34:49;7.17;;;2.20;;
9997;SDS011;5038;53.064;8.624;2023-03-24T14:37:20;7.33;;;3.10;;
9997;SDS011;5038;53.064;8.624;2023-03-24T14:39:50;6.33;;;2.17;;
9997;SDS011;5038;53.064;8.624;2023-03-24T14:42:25;5.83;;;2.30;;
9997;SDS011;5038;53.064;8.624;2023-03-24T14:48:22;8.77;;;2.60;;
9997;SDS011;5038;53.064;8.624;2023-03-24T14:50:56;5.50;;;2.30;;
9997;SDS011;5038;53.064;8.624;2023-03-24T14:53:28;7.17;;;2.63;;
9997;SDS011;5038;53.064;8.624;2023-03-24T14:55:57;7.93;;;2.70;;
9997;SDS011;5038;53.064;8.624;2023-03-24T14:58:29;6.00;;;2.53;;
9997;SDS011;5038;53.064;8.624;2023-03-24T15:01:01;6.50;;;2.67;;
9997;SDS011;5038;53.064;8.624;2023-03-24T15:03:35;7.60;;;3.13;;
9997;SDS011;5038;53.064;8.624;2023-03-24T15:06:12;7.80;;;2.77;;
9997;SDS011;5038;53.064;8.624;2023-03-24T15:08:44;6.00;;;2.60;;
9997;SDS011;5038;53.064;8.624;2023-03-24T15:11:17;4.40;;;1.70;;
9997;SDS011;5038;53.064;8.624;2023-03-24T15:13:51;4.77;;;2.30;;
9997;SDS011;5038;53.064;8.624;2023-03-24T15:16:21;3.90;;;1.50;;
9997;SDS011;5038;53.064;8.624;2023-03-24T15:18:52;7.10;;;1.90;;
9997;SDS011;5038;53.064;8.624;2023-03-24T15:21:26;7.00;;;2.03;;
9997;SDS011;5038;53.064;8.624;2023-03-24T15:23:58;6.53;;;2.27;;
9997;SDS011;5038;53.064;8.624;2023-03-24T15:26:28;5.30;;;1.90;;
9997;SDS011;5038;53.064;8.624;2023-03-24T15:28:58;4.10;;;1.73;;
9997;SDS011;5038;53.064;8.624;2023-03-24T15:31:28;6.33;;;2.30;;
9997;SDS011;5038;53.064;8.624;2023-03-24T15:34:07;5.43;;;2.03;;
9997;SDS011;5038;53.064;8.624;2023-03-24T15:36:52;7.07;;;2.63;;
9997;SDS011;5038;53.064;8.624;2023-03-24T15:39:25;5.40;;;2.00;;
9997;SDS011;5038;53.064;8.624;2023-03-24T15:41:55;5.70;;;1.83;;
9997;SDS011;5038;53.064;8.624;2023-03-24T15:44:24;4.57;;;2.00;;
9997;SDS011;5038;53.064;8.624;2023-03-24T15:46:55;5.27;;;2.10;;
9997;SDS011;5038;53.064;8.624;2023-03-24T15:49:24;6.97;;;2.30;;
9997;SDS011;5038;53.064;8.624;2023-03-24T15:51:57;5.67;;;1.80;;
9997;SDS011;5038;53.064;8.624;2023-03-24T15:54:29;5.60;;;1.87;;
9997;SDS011;5038;53.064;8.624;2023-03-24T15:56:59;5.97;;;2.13;;
9997;SDS011;5038;53.064;8.624;2023-03-24T15:59:31;7.00;;;2.10;;
9997;SDS011;5038;53.064;8.624;2023-03-24T16:02:02;5.90;;;2.10;;
9997;SDS011;5038;53.064;8.624;2023-03-24T16:04:38;5.70;;;2.27;;
9997;SDS011;5038;53.064;8.624;2023-03-24T16:07:17;5.90;;;2.37;;
9997;SDS011;5038;53.064;8.624;2023-03-24T16:09:57;6.63;;;2.20;;
9997;SDS011;5038;53.064;8.624;2023-03-24T16:12:31;4.70;;;1.93;;
9997;SDS011;5038;53.064;8.624;2023-03-24T16:15:00;4.23;;;1.67;;
9997;SDS011;5038;53.064;8.624;2023-03-24T16:17:31;5.00;;;2.37;;
9997;SDS011;5038;53.064;8.624;2023-03-24T16:19:59;7.13;;;3.23;;
9997;SDS011;5038;53.064;8.624;2023-03-24T16:22:27;7.13;;;2.33;;